KSAN/SAN METAR and TAF weather

Enter ICAO airport designator
Station Type Date Time Source
KSAN METAR 2019/06/19 07:51 UTC NOAA

KSAN 190751Z 00000KT 10SM FEW015 17/13 A2999 RMK AO2 SLP176 T01720133 402000167 $


Station Type Date Time Source
KSAN Decoded METAR 2019/06/19 07:51 UTC NOAA

SAN DIEGO INTERNATIONAL \LINDBERGH FLD, CA, United States (KSAN) 32-44N 117-11W 12M
Jun 19, 2019 - 03:51 AM EDT / 2019.06.19 0751 UTC
Wind: Calm:0
Visibility: 10 mile(s):0
Sky conditions: mostly clear
Temperature: 63.0 F (17.2 C)
Dew Point: 55.9 F (13.3 C)
Relative Humidity: 77%
Pressure (altimeter): 29.99 in. Hg (1015 hPa)
ob: KSAN 190751Z 00000KT 10SM FEW015 17/13 A2999 RMK AO2 SLP176 T01720133 402000167
cycle: 8

Station Type Date Time Source
KSAN TAF 2019/06/19 06:22 UTC NOAA

TAF KSAN 190520Z 1906/2012 28005KT P6SM SCT013
FM191000 VRB04KT P6SM OVC011
FM191800 27008KT P6SM BKN022
FM200400 VRB04KT P6SM OVC010

Example: see airport list